Bend, OR

12:46 PM PST on February 10, 2016 (GMT -0800)
RAWS | | Change Station
CLOSE
Current Station
Personal Weather Station
Location: Bend, OR
Elevation: 5330 ft
Nearby Weather Stations

Elev 5330 ft 44.03 °N, 121.58 °W | Updated 51 minutes ago

Partly Cloudy
Partly Cloudy
48.0 °F
Feels Like 48.0 °F
N
0.0
Wind Variable Wind from North
Gusts 7.0 mph

Today
High -- | Low -- °F
--% Chance of Precip.
Yesterday
High -- | Low -- °F
Precip. -- in
Pressure 30.28 in
Visibility 10.0 miles
Clouds Few 6000 ft
Dew Point 25.0 °F
Humidity 41%
Rainfall in
Snow Depth Not available.
7:13 AM 5:28 PM
Waxing Crescent, 7% visible
METAR KBDN 102035Z AUTO 00000KT 10SM FEW060 12/01 A3028 RMK AO2
Pressure 30.28 in
Visibility 10.0 miles
Clouds Few 6000 ft
Dew Point 25.0 °F
Humidity 41%
Rainfall in
Snow Depth Not available.
7:13 AM 5:28 PM
Waxing Crescent, 7% visible
METAR KBDN 102035Z AUTO 00000KT 10SM FEW060 12/01 A3028 RMK AO2

10-Day Weather Forecast

Almanac

Astronomy

Feb. 10, 2016 Rise Set
Actual Time
Civil Twilight
Nautical Twilight
Astronomical Twilight
Moon
Length of Visible Light
Length of Day
Tomorrow will be .
, % of the Moon is Illuminated

Today's Extremes

State Highs State Lows

Community

WunderPhotos

Upload Photos

1,891,945 photos uploaded!

WunderBlog® & News

Nearby

Air Quality

  Air Quality AQ Index Pollutant
Not available.

Snow Depth

Station Depth Elevation

Earthquake Activity

City Distance Mag. Time & Date
Minimum magnitude displayed is 2.5.

Coastal Water Temperatures

Place Temperature

Stations

Nearby Weather Stations

Station Location Temp. Windchill Dew Point Humidity Wind Precip. Elev Updated Type
                   

Watches & Warnings

There are currently no watches in effect.